createdAt,value
2023-02-19T00:00:39.005Z,49.97
2023-02-19T00:03:29.884Z,51.05
2023-02-19T00:06:02.335Z,50.83
2023-02-19T00:08:32.811Z,50.25
2023-02-19T00:11:08.146Z,50.13
2023-02-19T00:13:39.119Z,49.03
2023-02-19T00:16:09.328Z,50.15
2023-02-19T00:18:39.059Z,50.09
2023-02-19T00:21:09.149Z,50.43
2023-02-19T00:23:39.066Z,50.57
2023-02-19T00:26:18.280Z,50.28
2023-02-19T00:28:51.322Z,50.62
2023-02-19T00:31:23.933Z,50.92
2023-02-19T00:33:55.505Z,51.10
2023-02-19T00:36:25.486Z,50.70
2023-02-19T00:38:55.458Z,51.36
2023-02-19T00:41:26.746Z,52.08
2023-02-19T00:43:59.202Z,52.03
2023-02-19T00:46:30.213Z,52.94
2023-02-19T00:49:00.423Z,53.39
2023-02-19T00:51:32.003Z,52.72
2023-02-19T00:54:01.698Z,53.12
2023-02-19T00:56:32.497Z,54.42
2023-02-19T00:59:01.960Z,53.12
2023-02-19T01:01:31.272Z,52.98
2023-02-19T01:04:00.827Z,54.38
2023-02-19T01:06:32.499Z,53.83
2023-02-19T01:09:02.049Z,54.24
2023-02-19T01:11:32.796Z,54.36
2023-02-19T01:14:03.651Z,53.86
2023-02-19T01:16:32.948Z,52.92
2023-02-19T01:19:02.673Z,53.22
2023-02-19T01:21:32.877Z,53.86
2023-02-19T01:24:02.585Z,52.84
2023-02-19T01:26:34.505Z,52.26
2023-02-19T01:29:06.224Z,52.09
2023-02-19T01:31:36.806Z,53.76
2023-02-19T01:34:06.545Z,53.08
2023-02-19T01:36:37.397Z,53.68
2023-02-19T01:39:08.243Z,53.69
2023-02-19T01:41:41.721Z,54.38
2023-02-19T01:44:50.177Z,54.35
2023-02-19T01:47:21.315Z,53.45
2023-02-19T01:49:56.048Z,54.45
2023-02-19T01:52:32.676Z,53.79
2023-02-19T01:55:05.907Z,53.52
2023-02-19T01:57:43.080Z,54.45
2023-02-19T02:00:15.370Z,52.96
2023-02-19T02:02:49.256Z,53.39
2023-02-19T02:05:40.420Z,51.91
2023-02-19T02:08:27.378Z,51.31
2023-02-19T02:10:57.298Z,53.37
2023-02-19T02:13:28.099Z,52.80
2023-02-19T02:16:12.433Z,52.79
2023-02-19T02:18:55.359Z,52.51
2023-02-19T02:21:37.542Z,51.86
2023-02-19T02:24:32.091Z,53.23
2023-02-19T02:27:24.166Z,52.79
2023-02-19T02:30:36.125Z,52.21
2023-02-19T02:33:16.274Z,52.27
2023-02-19T02:35:50.854Z,51.01
2023-02-19T02:38:26.494Z,49.44
2023-02-19T02:40:58.016Z,51.38
2023-02-19T02:43:28.253Z,52.15
2023-02-19T02:45:59.373Z,51.25
2023-02-19T02:48:38.582Z,49.79
2023-02-19T02:51:20.489Z,50.47
2023-02-19T02:54:22.464Z,52.19
2023-02-19T02:56:53.888Z,51.87
2023-02-19T02:59:25.577Z,52.17
2023-02-19T03:02:14.085Z,50.30
2023-02-19T03:05:09.242Z,51.16
2023-02-19T03:07:44.718Z,51.32
2023-02-19T03:10:17.597Z,51.57
2023-02-19T03:13:14.413Z,50.64
2023-02-19T03:16:15.590Z,49.05
2023-02-19T03:19:06.633Z,49.33
2023-02-19T03:21:39.339Z,50.29
2023-02-19T03:24:30.739Z,50.40
2023-02-19T03:27:02.170Z,49.64
2023-02-19T03:29:39.675Z,49.36
2023-02-19T03:33:35.614Z,50.90
2023-02-19T03:36:12.790Z,50.69
2023-02-19T03:38:49.309Z,50.42
2023-02-19T03:41:25.294Z,51.39
2023-02-19T03:44:05.304Z,50.50
2023-02-19T03:46:43.872Z,51.06
2023-02-19T03:49:24.015Z,50.54
2023-02-19T03:52:03.175Z,52.24
2023-02-19T03:54:38.638Z,49.84
2023-02-19T03:57:20.507Z,50.60
2023-02-19T03:59:55.473Z,52.02
2023-02-19T04:02:31.371Z,50.30
2023-02-19T04:05:08.188Z,50.71
2023-02-19T04:07:44.786Z,51.72
2023-02-19T04:10:15.435Z,51.84
2023-02-19T04:12:51.597Z,52.19
2023-02-19T04:15:26.492Z,50.64
2023-02-19T04:18:00.203Z,51.76
2023-02-19T04:20:35.243Z,50.81
2023-02-19T04:23:05.995Z,49.88
2023-02-19T04:25:36.951Z,50.46
2023-02-19T04:28:06.475Z,51.27
2023-02-19T04:30:36.076Z,51.35
2023-02-19T04:33:05.517Z,51.42
2023-02-19T04:35:35.081Z,51.77
2023-02-19T04:38:05.856Z,53.25
2023-02-19T04:40:35.520Z,52.53
2023-02-19T04:43:04.743Z,53.91
2023-02-19T04:45:34.312Z,53.51
2023-02-19T04:48:03.718Z,54.02
2023-02-19T04:50:33.318Z,52.49
2023-02-19T04:53:02.567Z,53.19
2023-02-19T04:55:33.391Z,53.43
2023-02-19T04:58:02.733Z,53.50
2023-02-19T05:00:34.064Z,52.49
2023-02-19T05:03:04.040Z,52.93
2023-02-19T05:05:33.834Z,53.24
2023-02-19T05:08:03.114Z,53.30
2023-02-19T05:10:34.046Z,52.19
2023-02-19T05:13:03.231Z,53.20
2023-02-19T05:15:32.729Z,50.88
2023-02-19T05:18:01.974Z,52.70
2023-02-19T05:20:31.681Z,53.74
2023-02-19T05:23:01.027Z,53.38
2023-02-19T05:25:30.570Z,54.05
2023-02-19T05:28:15.007Z,53.80
2023-02-19T05:30:45.054Z,53.40
2023-02-19T05:33:14.958Z,51.59
2023-02-19T05:35:45.484Z,52.79
2023-02-19T05:38:15.137Z,52.61
2023-02-19T05:40:45.164Z,50.51
2023-02-19T05:43:16.251Z,51.60
2023-02-19T05:45:45.873Z,51.41
2023-02-19T05:48:15.272Z,52.00
2023-02-19T05:50:44.861Z,51.12
2023-02-19T05:53:14.931Z,51.08
2023-02-19T05:55:44.400Z,52.17
2023-02-19T05:58:14.935Z,51.92
2023-02-19T06:00:44.392Z,52.61
2023-02-19T06:03:13.667Z,52.24
2023-02-19T06:05:43.329Z,52.39
2023-02-19T06:08:13.975Z,51.69
2023-02-19T06:10:43.587Z,50.97
2023-02-19T06:13:16.254Z,51.48
2023-02-19T06:15:47.110Z,51.85
2023-02-19T06:18:16.293Z,52.54
2023-02-19T06:20:45.805Z,51.82
2023-02-19T06:23:15.745Z,51.15
2023-02-19T06:25:45.451Z,52.05
2023-02-19T06:28:16.032Z,51.53
2023-02-19T06:30:45.668Z,51.12
2023-02-19T06:33:14.955Z,52.49
2023-02-19T06:35:44.431Z,53.67
2023-02-19T06:38:13.596Z,51.44
2023-02-19T06:40:43.055Z,51.34
2023-02-19T06:43:12.463Z,50.32
2023-02-19T06:45:43.652Z,50.70
2023-02-19T06:48:12.922Z,51.14
2023-02-19T06:50:42.417Z,50.70
2023-02-19T06:53:11.828Z,50.08
2023-02-19T06:55:41.637Z,51.36
2023-02-19T06:58:11.054Z,52.07
2023-02-19T07:00:42.426Z,50.42
2023-02-19T07:03:11.801Z,50.57
2023-02-19T07:05:41.387Z,50.61
2023-02-19T07:08:10.625Z,51.32
2023-02-19T07:10:40.195Z,50.96
2023-02-19T07:13:09.389Z,49.17
2023-02-19T07:15:38.843Z,50.12
2023-02-19T07:18:10.614Z,50.57
2023-02-19T07:20:40.323Z,51.29
2023-02-19T07:23:09.613Z,50.76
2023-02-19T07:25:40.170Z,50.87
2023-02-19T07:28:09.645Z,50.16
2023-02-19T07:30:39.210Z,50.81
2023-02-19T07:33:11.577Z,50.77
2023-02-19T07:35:47.484Z,51.06
2023-02-19T07:38:18.346Z,50.56
2023-02-19T07:40:53.433Z,49.58
2023-02-19T07:43:25.515Z,49.31
2023-02-19T07:45:55.556Z,50.00
2023-02-19T07:48:26.444Z,49.53
2023-02-19T07:50:57.205Z,50.90
2023-02-19T07:53:27.672Z,49.94
2023-02-19T07:56:02.210Z,49.54
2023-02-19T07:58:31.936Z,51.06
2023-02-19T08:01:09.927Z,49.92
2023-02-19T08:03:40.254Z,49.71
2023-02-19T08:06:11.639Z,49.72
2023-02-19T08:08:41.587Z,49.79
2023-02-19T08:11:29.775Z,49.49
2023-02-19T08:13:59.098Z,50.88
2023-02-19T08:16:42.248Z,49.64
2023-02-19T08:19:13.797Z,49.23
2023-02-19T08:21:43.394Z,48.56
2023-02-19T08:24:12.999Z,48.84
2023-02-19T08:26:42.579Z,48.33
2023-02-19T08:29:11.964Z,48.03
2023-02-19T08:31:41.950Z,48.69
2023-02-19T08:34:12.952Z,47.54
2023-02-19T08:36:42.746Z,46.61
2023-02-19T08:39:12.113Z,46.58
2023-02-19T08:41:41.645Z,46.46
2023-02-19T08:44:10.980Z,46.74
2023-02-19T08:46:40.596Z,46.45
2023-02-19T08:49:09.828Z,46.48
2023-02-19T08:51:40.835Z,45.63
2023-02-19T08:54:10.028Z,46.05
2023-02-19T08:56:39.664Z,46.24
2023-02-19T08:59:08.922Z,45.61
2023-02-19T09:01:38.453Z,45.40
2023-02-19T09:04:07.752Z,44.33
2023-02-19T09:06:39.154Z,44.30
2023-02-19T09:09:10.930Z,44.93
2023-02-19T09:11:41.046Z,45.04
2023-02-19T09:14:10.776Z,44.12
2023-02-19T09:16:40.384Z,44.54
2023-02-19T09:19:09.627Z,43.92
2023-02-19T09:21:39.333Z,43.45
2023-02-19T09:24:11.981Z,43.88
2023-02-19T09:26:41.507Z,44.51
2023-02-19T09:29:10.795Z,41.68
2023-02-19T09:31:40.551Z,40.18
2023-02-19T09:34:11.862Z,40.67
2023-02-19T09:36:41.815Z,40.54
2023-02-19T09:39:13.207Z,41.07
2023-02-19T09:41:47.191Z,40.71
2023-02-19T09:44:22.480Z,40.68
2023-02-19T09:46:55.129Z,40.01
2023-02-19T09:49:30.384Z,38.93
2023-02-19T09:52:01.958Z,39.40
2023-02-19T09:54:33.399Z,40.16
2023-02-19T09:57:05.024Z,38.63
2023-02-19T09:59:42.202Z,38.79
2023-02-19T10:02:17.494Z,37.18
2023-02-19T10:04:48.371Z,35.80
2023-02-19T10:07:20.380Z,34.65
2023-02-19T10:09:56.998Z,35.38
2023-02-19T10:12:28.861Z,35.50
2023-02-19T10:15:02.980Z,35.79
2023-02-19T10:17:34.930Z,35.00
2023-02-19T10:20:05.122Z,36.57
2023-02-19T10:22:38.063Z,36.51
2023-02-19T10:25:09.383Z,36.15
2023-02-19T10:27:39.087Z,35.57
2023-02-19T10:30:18.600Z,34.48
2023-02-19T10:33:04.624Z,33.96
2023-02-19T10:35:38.900Z,32.02
2023-02-19T10:38:08.792Z,32.36
2023-02-19T10:40:46.782Z,30.50
2023-02-19T10:43:31.182Z,31.72
2023-02-19T10:46:06.157Z,31.80
2023-02-19T10:48:39.126Z,30.57
2023-02-19T10:51:10.851Z,28.21
2023-02-19T10:53:45.153Z,26.45
2023-02-19T10:56:23.874Z,24.05
2023-02-19T10:58:54.284Z,23.23
2023-02-19T11:01:25.761Z,20.16
2023-02-19T11:04:15.565Z,18.33
2023-02-19T11:06:46.326Z,19.63
2023-02-19T11:09:28.097Z,22.06
2023-02-19T11:11:59.957Z,21.37
2023-02-19T11:14:31.739Z,20.45
2023-02-19T11:17:04.104Z,20.01
2023-02-19T11:19:39.020Z,19.82
2023-02-19T11:22:21.668Z,17.74
2023-02-19T11:24:56.692Z,17.06
2023-02-19T11:27:28.473Z,16.45
2023-02-19T11:30:18.545Z,19.07
2023-02-19T11:32:47.957Z,24.41
2023-02-19T11:35:22.536Z,23.18
2023-02-19T11:37:59.410Z,25.39
2023-02-19T11:40:42.789Z,23.33
2023-02-19T11:43:36.931Z,20.11
2023-02-19T11:46:14.330Z,18.59
2023-02-19T11:48:54.931Z,16.51
2023-02-19T11:51:52.728Z,18.80
2023-02-19T11:54:49.300Z,19.33
2023-02-19T11:57:37.103Z,16.92
2023-02-19T12:00:26.435Z,17.43
2023-02-19T12:03:07.562Z,17.23
2023-02-19T12:05:49.189Z,18.17
2023-02-19T12:08:57.852Z,17.75
2023-02-19T12:11:50.522Z,20.53
2023-02-19T12:14:53.609Z,21.09
2023-02-19T12:17:42.910Z,19.19
2023-02-19T12:20:24.135Z,17.96
2023-02-19T12:23:05.379Z,15.44
2023-02-19T12:25:58.368Z,16.97
2023-02-19T12:29:02.880Z,17.78
2023-02-19T12:32:03.489Z,16.61
2023-02-19T12:35:11.835Z,15.45
2023-02-19T12:37:52.207Z,14.74
2023-02-19T12:40:34.882Z,17.19
2023-02-19T12:43:13.341Z,16.36
2023-02-19T12:45:48.313Z,16.43
2023-02-19T12:48:28.088Z,16.01
2023-02-19T12:51:03.924Z,14.47
2023-02-19T12:53:41.378Z,15.54
2023-02-19T12:56:18.859Z,14.92
2023-02-19T12:58:52.070Z,15.04
2023-02-19T13:01:25.987Z,15.44
2023-02-19T13:04:17.296Z,14.43
2023-02-19T13:06:53.808Z,13.87
2023-02-19T13:09:29.840Z,14.82
2023-02-19T13:12:04.480Z,14.83
2023-02-19T13:14:39.013Z,14.77
2023-02-19T13:17:18.412Z,15.71
2023-02-19T13:19:51.591Z,14.44
2023-02-19T13:22:48.821Z,13.76
2023-02-19T13:25:20.404Z,14.73
2023-02-19T13:28:00.441Z,15.16
2023-02-19T13:30:50.156Z,13.58
2023-02-19T13:33:42.323Z,14.74
2023-02-19T13:36:18.211Z,15.42
2023-02-19T13:38:51.304Z,16.55
2023-02-19T13:41:32.348Z,14.20
2023-02-19T13:44:08.230Z,15.42
2023-02-19T13:46:41.518Z,14.26
2023-02-19T13:49:45.648Z,15.06
2023-02-19T13:52:43.593Z,16.74
2023-02-19T13:55:53.141Z,14.52
2023-02-19T13:58:56.269Z,15.52
2023-02-19T14:02:17.766Z,17.35
2023-02-19T14:04:51.569Z,15.91
2023-02-19T14:07:52.655Z,16.21
2023-02-19T14:11:08.818Z,15.88
2023-02-19T14:14:06.745Z,16.45
2023-02-19T14:17:07.626Z,16.89
2023-02-19T14:19:50.170Z,15.82
2023-02-19T14:23:01.738Z,18.36
2023-02-19T14:25:40.747Z,19.45
2023-02-19T14:28:22.783Z,20.28
2023-02-19T14:30:55.601Z,18.37
2023-02-19T14:33:27.523Z,18.54
2023-02-19T14:36:01.153Z,19.91
2023-02-19T14:38:34.919Z,20.64
2023-02-19T14:41:05.245Z,21.45
2023-02-19T14:43:37.648Z,21.61
2023-02-19T14:46:17.328Z,21.41
2023-02-19T14:48:49.212Z,21.02
2023-02-19T14:51:26.426Z,21.63
2023-02-19T14:53:57.604Z,20.34
2023-02-19T14:56:31.081Z,19.96
2023-02-19T14:59:32.204Z,21.45
2023-02-19T15:02:04.539Z,20.46
2023-02-19T15:04:38.476Z,19.45
2023-02-19T15:07:11.875Z,20.31
2023-02-19T15:09:45.747Z,20.04
2023-02-19T15:12:18.553Z,20.68
2023-02-19T15:14:49.886Z,22.10
2023-02-19T15:17:26.938Z,22.27
2023-02-19T15:19:59.033Z,22.25
2023-02-19T15:22:32.008Z,24.20
2023-02-19T15:25:03.171Z,24.70
2023-02-19T15:27:33.095Z,26.25
2023-02-19T15:30:03.054Z,25.57
2023-02-19T15:32:33.993Z,26.66
2023-02-19T15:35:05.893Z,28.48
2023-02-19T15:37:36.954Z,30.71
2023-02-19T15:40:09.325Z,30.97
2023-02-19T15:42:39.446Z,32.90
2023-02-19T15:45:17.845Z,32.61
2023-02-19T15:47:54.209Z,33.07
2023-02-19T15:50:28.084Z,33.59
2023-02-19T15:53:04.332Z,33.48
2023-02-19T15:55:40.573Z,34.16
2023-02-19T15:58:16.813Z,34.01
2023-02-19T16:00:50.497Z,35.14
2023-02-19T16:03:23.138Z,36.03
2023-02-19T16:06:01.696Z,36.71
2023-02-19T16:08:33.229Z,36.59
2023-02-19T16:11:05.439Z,36.44
2023-02-19T16:13:36.157Z,37.58
2023-02-19T16:16:16.226Z,37.35
2023-02-19T16:18:50.213Z,37.39
2023-02-19T16:21:23.935Z,38.55
2023-02-19T16:24:01.256Z,39.55
2023-02-19T16:26:32.613Z,38.63
2023-02-19T16:29:02.067Z,39.68
2023-02-19T16:31:31.769Z,39.41
2023-02-19T16:34:18.940Z,39.69
2023-02-19T16:36:49.367Z,39.88
2023-02-19T16:39:25.602Z,39.39
2023-02-19T16:42:19.635Z,39.79
2023-02-19T16:44:49.664Z,40.28
2023-02-19T16:47:30.828Z,39.36
2023-02-19T16:50:03.970Z,41.20
2023-02-19T16:52:34.444Z,40.47
2023-02-19T16:55:04.010Z,39.57
2023-02-19T16:57:33.597Z,40.72
2023-02-19T17:00:02.890Z,40.66
2023-02-19T17:02:33.790Z,40.45
2023-02-19T17:05:04.583Z,40.66
2023-02-19T17:07:34.333Z,41.52
2023-02-19T17:10:04.145Z,41.63
2023-02-19T17:12:33.707Z,39.96
2023-02-19T17:15:03.081Z,40.43
2023-02-19T17:17:32.832Z,40.70
2023-02-19T17:20:03.622Z,40.37
2023-02-19T17:22:33.658Z,40.02
2023-02-19T17:25:03.471Z,40.84
2023-02-19T17:27:33.061Z,39.92
2023-02-19T17:30:02.399Z,40.44
2023-02-19T17:32:32.219Z,40.39
2023-02-19T17:35:03.452Z,40.47
2023-02-19T17:37:32.967Z,40.12
2023-02-19T17:40:02.526Z,40.79
2023-02-19T17:42:32.397Z,40.43
2023-02-19T17:45:02.031Z,40.60
2023-02-19T17:47:34.142Z,41.54
2023-02-19T17:50:06.979Z,41.76
2023-02-19T17:52:36.618Z,41.63
2023-02-19T17:55:07.489Z,41.68
2023-02-19T17:57:37.646Z,40.55
2023-02-19T18:00:08.322Z,41.43
2023-02-19T18:02:42.476Z,40.74
2023-02-19T18:05:14.103Z,41.02
2023-02-19T18:07:45.513Z,41.03
2023-02-19T18:10:15.562Z,40.66
2023-02-19T18:12:45.393Z,41.33
2023-02-19T18:15:21.143Z,41.25
2023-02-19T18:17:50.913Z,41.56
2023-02-19T18:20:24.380Z,41.68
2023-02-19T18:22:54.426Z,42.23
2023-02-19T18:25:24.577Z,41.44
2023-02-19T18:27:54.698Z,42.23
2023-02-19T18:30:25.760Z,42.86
2023-02-19T18:32:55.478Z,42.53
2023-02-19T18:35:26.236Z,43.26
2023-02-19T18:37:56.657Z,43.11
2023-02-19T18:40:27.106Z,43.11
2023-02-19T18:42:56.849Z,43.85
2023-02-19T18:45:26.192Z,43.89
2023-02-19T18:47:55.793Z,43.88
2023-02-19T18:50:26.534Z,44.02
2023-02-19T18:52:56.243Z,46.34
2023-02-19T18:55:25.609Z,44.45
2023-02-19T18:57:55.192Z,45.14
2023-02-19T19:00:26.789Z,44.21
2023-02-19T19:03:00.785Z,46.05
2023-02-19T19:05:31.697Z,45.84
2023-02-19T19:08:01.976Z,45.58
2023-02-19T19:10:32.164Z,46.79
2023-02-19T19:13:01.690Z,47.27
2023-02-19T19:15:31.260Z,46.81
2023-02-19T19:18:02.836Z,45.93
2023-02-19T19:20:33.680Z,46.62
2023-02-19T19:23:04.998Z,46.90
2023-02-19T19:25:34.468Z,45.95
2023-02-19T19:28:04.744Z,48.03
2023-02-19T19:30:34.386Z,47.70
2023-02-19T19:33:04.484Z,46.91
2023-02-19T19:35:35.428Z,47.29
2023-02-19T19:38:05.203Z,47.46
2023-02-19T19:40:35.995Z,48.26
2023-02-19T19:43:05.987Z,48.03
2023-02-19T19:45:35.256Z,48.40
2023-02-19T19:48:07.349Z,47.58
2023-02-19T19:50:37.958Z,48.08
2023-02-19T19:53:07.495Z,47.87
2023-02-19T19:55:36.824Z,47.89
2023-02-19T19:58:07.435Z,47.31
2023-02-19T20:00:38.238Z,49.96
2023-02-19T20:03:08.010Z,48.43
2023-02-19T20:05:38.678Z,47.61
2023-02-19T20:08:08.522Z,48.59
2023-02-19T20:10:37.859Z,48.47
2023-02-19T20:13:07.567Z,49.28
2023-02-19T20:15:37.190Z,48.47
2023-02-19T20:18:07.120Z,49.20
2023-02-19T20:20:38.505Z,48.67
2023-02-19T20:23:08.293Z,49.61
2023-02-19T20:25:37.740Z,49.27
2023-02-19T20:28:08.240Z,48.53
2023-02-19T20:30:37.569Z,49.64
2023-02-19T20:33:08.213Z,48.58
2023-02-19T20:35:39.639Z,49.03
2023-02-19T20:38:09.357Z,47.55
2023-02-19T20:40:39.019Z,47.32
2023-02-19T20:43:08.545Z,49.49
2023-02-19T20:45:37.898Z,49.29
2023-02-19T20:48:07.611Z,48.06
2023-02-19T20:50:38.300Z,50.33
2023-02-19T20:53:08.394Z,48.99
2023-02-19T20:55:37.604Z,50.10
2023-02-19T20:58:07.232Z,49.02
2023-02-19T21:00:36.506Z,49.54
2023-02-19T21:03:09.106Z,50.75
2023-02-19T21:05:40.763Z,52.18
2023-02-19T21:08:11.739Z,51.99
2023-02-19T21:10:41.074Z,51.35
2023-02-19T21:13:11.854Z,50.67
2023-02-19T21:15:41.437Z,51.94
2023-02-19T21:18:11.121Z,52.36
2023-02-19T21:20:42.191Z,51.84
2023-02-19T21:23:11.893Z,50.90
2023-02-19T21:25:41.049Z,51.25
2023-02-19T21:28:10.932Z,52.84
2023-02-19T21:30:40.201Z,51.11
2023-02-19T21:33:10.021Z,51.17
2023-02-19T21:35:39.199Z,52.18
2023-02-19T21:38:10.225Z,51.49
2023-02-19T21:40:39.719Z,51.06
2023-02-19T21:43:09.304Z,50.68
2023-02-19T21:45:38.497Z,50.21
2023-02-19T21:48:09.993Z,50.78
2023-02-19T21:50:40.324Z,50.17
2023-02-19T21:53:11.361Z,50.24
2023-02-19T21:55:52.900Z,49.65
2023-02-19T21:58:27.381Z,49.51
2023-02-19T22:00:58.137Z,49.52
2023-02-19T22:03:27.851Z,50.86
2023-02-19T22:05:57.443Z,50.68
2023-02-19T22:08:28.364Z,51.67
2023-02-19T22:10:57.647Z,50.58
2023-02-19T22:13:27.172Z,51.39
2023-02-19T22:15:56.342Z,51.96
2023-02-19T22:18:26.007Z,52.09
2023-02-19T22:20:55.402Z,52.19
2023-02-19T22:23:24.826Z,51.64
2023-02-19T22:25:55.406Z,53.34
2023-02-19T22:28:24.918Z,53.30
2023-02-19T22:30:54.098Z,53.41
2023-02-19T22:33:23.538Z,52.61
2023-02-19T22:35:52.689Z,53.43
2023-02-19T22:38:22.338Z,53.88
2023-02-19T22:40:51.470Z,54.55
2023-02-19T22:43:22.465Z,54.25
2023-02-19T22:45:51.704Z,54.42
2023-02-19T22:48:29.567Z,54.94
2023-02-19T22:50:59.568Z,55.92
2023-02-19T22:53:29.127Z,56.30
2023-02-19T22:55:58.270Z,56.37
2023-02-19T22:58:29.128Z,56.26
2023-02-19T23:00:58.344Z,56.74
2023-02-19T23:03:27.844Z,56.04
2023-02-19T23:05:57.139Z,56.43
2023-02-19T23:08:26.733Z,56.17
2023-02-19T23:10:55.917Z,55.91
2023-02-19T23:13:25.384Z,55.46
2023-02-19T23:15:55.983Z,55.04
2023-02-19T23:18:25.537Z,54.65
2023-02-19T23:20:55.096Z,53.53
2023-02-19T23:23:24.587Z,53.29
2023-02-19T23:25:53.775Z,54.67
2023-02-19T23:28:23.209Z,55.19
2023-02-19T23:30:52.519Z,53.94
2023-02-19T23:33:23.605Z,54.87
2023-02-19T23:35:52.780Z,54.34
2023-02-19T23:38:22.398Z,53.39
2023-02-19T23:40:51.658Z,52.50
2023-02-19T23:43:21.163Z,53.94
2023-02-19T23:45:51.365Z,53.37
2023-02-19T23:48:22.254Z,52.04
2023-02-19T23:50:51.408Z,51.55
2023-02-19T23:53:21.143Z,50.39
2023-02-19T23:55:51.716Z,52.80
2023-02-19T23:58:21.201Z,51.80
